Meishomaru — JD3044 — position and weather

sailwx.info

Track history (hours):
 
Tides and Currents Weather Stations Pressure Air Temp Water Temp Dewpoint Dewpoint Depression Visibility Wind Speed Wind Dir Waves Ship Positions

Meishomaru

Last reported at 2017-Jun-01 06:43 UTC. Time now 2017-Jun-27 17:29 UTC.
Position N 34°14' E 134°58'.
Warning: this ship's position is 26 days out of date.

Length 68 m; draft 4 m.

Type: Tanker. MMSI: 431001216.

Date/timePositionNaut miles runAvg speedWind from/ knotsBaromVisibWave heightAir tempDewpointWater temp
2017-Jun-01 06:43N 34°14' E 134°58'1511.3
2017-Jun-01 05:21N 34°28' E 135°07'512.5
2017-Jun-01 04:58N 34°31' E 135°11'511.9
2017-Jun-01 04:31N 34°36' E 135°15'510.7
2017-Jun-01 04:00N 34°41' E 135°15'1 2.0
2017-Jun-01 03:30N 34°42' E 135°15'0 0.0
2017-Jun-01 02:46N 34°42' E 135°15'0 0.0
2017-Jun-01 01:28N 34°42' E 135°15'0 0.0
2017-Jun-01 00:40N 34°42' E 135°15'0 0.0
2017-Jun-01 00:28N 34°42' E 135°15'0 0.0
2017-May-31 23:52N 34°42' E 135°15'0 0.0
2017-May-31 23:22N 34°42' E 135°15'0 1.0
2017-May-31 23:00N 34°42' E 135°15'3 5.4
2017-May-31 22:30N 34°39' E 135°16'3 5.6
2017-May-31 22:00N 34°39' E 135°19'0 0.1
2017-May-31 21:28N 34°39' E 135°19'0 0.0
2017-May-31 20:52N 34°39' E 135°19'0 0.0
2017-May-31 20:22N 34°39' E 135°19'0 0.0
2017-May-31 19:58N 34°39' E 135°19'0 0.0
2017-May-31 19:22N 34°39' E 135°19'0 0.0
2017-May-31 18:58N 34°39' E 135°19'0 0.0
2017-May-31 18:28N 34°39' E 135°19'0 0.0
2017-May-31 17:58N 34°39' E 135°19'0 0.0
2017-May-31 17:28N 34°39' E 135°19'0 0.0
2017-May-31 16:52N 34°39' E 135°19'0 0.0
2017-May-31 16:22N 34°39' E 135°19'0 0.0
2017-May-31 15:58N 34°39' E 135°19'0 0.0
2017-May-31 15:28N 34°39' E 135°19'0 0.0
2017-May-31 14:58N 34°39' E 135°19'0 0.0
2017-May-31 13:52N 34°39' E 135°19'0 0.0
2017-May-31 13:28N 34°39' E 135°19'0 0.0
2017-May-31 12:58N 34°39' E 135°19'0 0.0
2017-May-31 11:58N 34°39' E 135°19'0 0.1
2017-May-31 11:28N 34°39' E 135°19'0 0.0
2017-May-31 10:58N 34°39' E 135°19'0 0.0
2017-May-31 10:28N 34°39' E 135°19'0 0.0
2017-May-31 09:40N 34°39' E 135°19'0 0.0
2017-May-31 09:28N 34°39' E 135°19'0 0.0
2017-May-31 08:58N 34°39' E 135°19'0 0.0
2017-May-31 08:10N 34°39' E 135°19'0 0.0
2017-May-31 07:58N 34°39' E 135°19'0 0.0
2017-May-31 07:28N 34°39' E 135°19'0 0.0
2017-May-31 06:16N 34°39' E 135°19'0 0.0
2017-May-31 05:58N 34°39' E 135°19'0 0.1
2017-May-31 05:04N 34°39' E 135°19'0 0.0
2017-May-31 04:52N 34°39' E 135°19'0 0.0
2017-May-31 04:10N 34°39' E 135°19'0 0.1
2017-May-31 03:58N 34°39' E 135°19'0 0.0
2017-May-31 03:28N 34°39' E 135°19'0 0.1
2017-May-31 02:58N 34°39' E 135°19'0 0.1
2017-May-31 02:16N 34°39' E 135°19'0 0.0
2017-May-31 01:52N 34°39' E 135°19'0 0.0
2017-May-31 01:28N 34°39' E 135°19'4 8.4
2017-May-31 01:00N 34°35' E 135°17'612.1
2017-May-31 00:30N 34°30' E 135°13'611.4
2017-May-31 00:00N 34°26' E 135°08'511.0
2017-May-30 23:30N 34°22' E 135°03'810.2
2017-May-30 22:44N 34°15' E 134°59'3 9.9
2017-May-30 22:28N 34°12' E 134°60'511.2
2017-May-30 21:59N 34°07' E 135°01'209 6.2
2017-May-29 12:20N 34°50' E 139°09'1511.1
2017-May-29 10:58N 34°60' E 139°24'911.3
2017-May-29 10:10N 35°04' E 139°33'211.9
2017-May-29 09:58N 35°05' E 139°36'612.4
2017-May-29 09:30N 35°08' E 139°42'611.3
2017-May-29 09:00N 35°12' E 139°46'510.0
2017-May-29 08:30N 35°17' E 139°45'510.6
2017-May-29 08:00N 35°22' E 139°42'510.0
2017-May-29 07:31N 35°26' E 139°45'510.9
2017-May-29 07:01N 35°29' E 139°51'510.6
2017-May-29 06:31N 35°32' E 139°57'610.9
2017-May-29 06:00N 35°34' E 140°03'2 0.5
2017-May-29 02:38N 35°33' E 140°05'0 1.7
2017-May-29 02:30N 35°33' E 140°05'3 0.2
2017-May-28 07:15N 35°33' E 140°01'312.2
2017-May-28 07:00N 35°32' E 139°58'612.3
2017-May-28 06:30N 35°28' E 139°52'612.5
2017-May-28 06:00N 35°24' E 139°46'612.1
2017-May-28 05:30N 35°18' E 139°45'611.7
2017-May-28 05:00N 35°12' E 139°47'611.6
2017-May-28 04:30N 35°07' E 139°45'1 2.8
2017-May-28 04:00N 35°06' E 139°44'4 9.0
2017-May-28 03:30N 35°10' E 139°45'612.6
2017-May-28 03:00N 35°17' E 139°45'612.3
2017-May-28 02:30N 35°22' E 139°42'612.2
2017-May-28 02:00N 35°28' E 139°42'4 7.7
2017-May-28 01:30N 35°31' E 139°45'0 0.0
2017-May-27 22:48N 35°31' E 139°45'0 0.9
2017-May-27 22:30N 35°31' E 139°45'3 6.4
2017-May-27 22:00N 35°30' E 139°49'1 1.3
2017-May-27 21:28N 35°30' E 139°49'0 0.0
2017-May-27 21:01N 35°30' E 139°49'0 0.0
2017-May-27 20:28N 35°30' E 139°49'0 0.0
2017-May-27 20:01N 35°30' E 139°49'0 0.0
2017-May-27 19:31N 35°30' E 139°49'0 0.0
2017-May-27 19:01N 35°30' E 139°49'0 0.0
2017-May-27 18:28N 35°30' E 139°49'0 0.0
2017-May-27 18:01N 35°30' E 139°49'0 0.0
2017-May-27 17:31N 35°30' E 139°49'0 0.0
2017-May-27 17:01N 35°30' E 139°49'0 0.0
2017-May-27 16:31N 35°30' E 139°49'0 0.0
2017-May-27 16:01N 35°30' E 139°49'0 0.0
2017-May-27 15:31N 35°30' E 139°49'0 0.0
2017-May-27 15:01N 35°30' E 139°49'0 0.0
2017-May-27 14:01N 35°30' E 139°49'0 0.0
2017-May-27 13:28N 35°30' E 139°49'0 0.0
2017-May-27 13:01N 35°30' E 139°49'0 0.0
2017-May-27 12:31N 35°30' E 139°49'0 0.0
2017-May-27 12:01N 35°30' E 139°49'0 0.0
2017-May-27 11:31N 35°30' E 139°49'0 0.1
2017-May-27 11:00N 35°30' E 139°49'4 8.7
2017-May-27 10:30N 35°27' E 139°45'510.5
2017-May-27 10:00N 35°24' E 139°40'1 2.5
2017-May-27 09:30N 35°25' E 139°39'0 0.0
2017-May-27 09:00N 35°25' E 139°39'0 0.0
2017-May-27 08:30N 35°25' E 139°39'0 0.0
2017-May-27 08:00N 35°25' E 139°39'0 0.0
2017-May-27 07:30N 35°25' E 139°39'0 0.0
2017-May-27 07:00N 35°25' E 139°39'0 0.0
2017-May-27 06:30N 35°25' E 139°39'0 0.0
2017-May-27 06:00N 35°25' E 139°39'0 0.0
2017-May-27 05:30N 35°25' E 139°39'0 0.3
2017-May-27 05:00N 35°25' E 139°39'2 4.1
2017-May-27 04:31N 35°23' E 139°40'0 0.1
2017-May-27 03:59N 35°23' E 139°40'0 0.0
2017-May-27 03:29N 35°23' E 139°40'0 0.0
2017-May-27 02:59N 35°23' E 139°40'2 3.4
2017-May-27 02:30N 35°24' E 139°42'510.5
2017-May-27 02:00N 35°29' E 139°42'3 6.0
2017-May-27 01:30N 35°31' E 139°45'0 0.0
2017-May-27 00:53N 35°31' E 139°45'0 0.0
2017-May-27 00:26N 35°31' E 139°45'0 0.0
2017-May-26 23:56N 35°31' E 139°45'0 0.0
2017-May-26 22:47N 35°31' E 139°45'0 0.3
2017-May-26 22:30N 35°31' E 139°45'3 5.6
2017-May-26 22:00N 35°30' E 139°48'1 1.7
2017-May-26 21:30N 35°29' E 139°48'0 0.0
2017-May-26 21:00N 35°29' E 139°48'0 0.0
2017-May-26 20:30N 35°29' E 139°48'0 0.0
2017-May-26 20:00N 35°29' E 139°48'0 0.0
2017-May-26 19:30N 35°29' E 139°48'0 0.0
2017-May-26 19:00N 35°29' E 139°48'0 0.0
2017-May-26 18:30N 35°29' E 139°48'0 0.0
2017-May-26 18:00N 35°29' E 139°48'0 0.0
2017-May-26 17:30N 35°29' E 139°48'0 0.0
2017-May-26 17:00N 35°29' E 139°48'0 0.0
2017-May-26 16:30N 35°29' E 139°48'0 0.1
2017-May-26 16:00N 35°29' E 139°49'0 0.0
2017-May-26 15:27N 35°29' E 139°49'0 0.0
2017-May-26 14:57N 35°29' E 139°49'0 0.0
2017-May-26 14:00N 35°29' E 139°49'0 0.0
2017-May-26 13:30N 35°29' E 139°49'0 0.0
2017-May-26 13:00N 35°29' E 139°49'0 0.0
2017-May-26 12:27N 35°29' E 139°49'0 0.0
2017-May-26 12:00N 35°29' E 139°49'1 1.7
2017-May-26 11:30N 35°28' E 139°48'611.2
2017-May-26 11:00N 35°25' E 139°43'3 6.6
2017-May-26 10:31N 35°25' E 139°39'0 0.0
2017-May-26 09:58N 35°25' E 139°39'0 0.0
2017-May-26 09:28N 35°25' E 139°39'0 0.0
2017-May-26 08:58N 35°25' E 139°39'0 0.0
2017-May-26 08:28N 35°25' E 139°39'0 0.0
2017-May-26 07:58N 35°25' E 139°39'0 0.0
2017-May-26 07:28N 35°25' E 139°39'0 0.0
2017-May-26 06:58N 35°25' E 139°39'0 0.0
2017-May-26 06:28N 35°25' E 139°39'1 1.5
2017-May-26 06:01N 35°24' E 139°39'612.0
2017-May-26 05:30N 35°19' E 139°44'612.3
2017-May-26 05:00N 35°14' E 139°47'612.4
2017-May-26 04:30N 35°08' E 139°46'612.2
2017-May-26 04:00N 35°02' E 139°44'4 0.1
2017-May-24 06:15N 34°57' E 139°44'310.9
2017-May-24 06:00N 34°60' E 139°43'611.7
2017-May-24 05:30N 35°05' E 139°44'611.3
2017-May-24 05:00N 35°11' E 139°46'510.4
2017-May-24 04:30N 35°16' E 139°46'510.7
2017-May-24 04:00N 35°21' E 139°42'5 9.6
2017-May-24 03:30N 35°25' E 139°39'0 0.1
2017-May-24 03:00N 35°25' E 139°39'0 0.0
2017-May-24 02:30N 35°25' E 139°39'0 0.0
2017-May-24 02:00N 35°25' E 139°39'0 0.0
2017-May-24 01:30N 35°25' E 139°39'0 0.0
2017-May-24 01:00N 35°25' E 139°39'0 0.0
2017-May-24 00:30N 35°25' E 139°39'0 0.0
2017-May-24 00:00N 35°25' E 139°39'0 0.0
2017-May-23 23:30N 35°25' E 139°39'1 1.1
2017-May-23 23:01N 35°24' E 139°39'2 3.2
2017-May-23 22:28N 35°23' E 139°40'0 0.0
2017-May-23 21:58N 35°23' E 139°40'0 0.0
2017-May-23 21:28N 35°23' E 139°40'0 0.1
2017-May-23 20:58N 35°23' E 139°40'0 0.1
2017-May-23 20:28N 35°23' E 139°40'0 0.0
2017-May-23 19:58N 35°23' E 139°40'0 0.0
2017-May-23 19:28N 35°23' E 139°40'0 0.0
2017-May-23 18:58N 35°23' E 139°40'0 0.0
2017-May-23 18:28N 35°23' E 139°40'0 0.0
2017-May-23 17:58N 35°23' E 139°40'0 0.0
2017-May-23 17:28N 35°23' E 139°40'0 0.0
2017-May-23 16:58N 35°23' E 139°40'0 0.0
2017-May-23 16:28N 35°23' E 139°40'0 0.0
2017-May-23 15:58N 35°23' E 139°40'0 0.0
2017-May-23 15:28N 35°23' E 139°40'0 0.0
2017-May-23 15:00N 35°23' E 139°40'0 0.0
2017-May-23 14:31N 35°23' E 139°40'0 0.0
2017-May-23 13:30N 35°23' E 139°40'0 0.0
2017-May-23 13:00N 35°23' E 139°40'0 0.0
2017-May-23 12:31N 35°23' E 139°40'0 0.0
2017-May-23 12:00N 35°23' E 139°40'0 0.0
2017-May-23 11:30N 35°23' E 139°40'0 0.0
2017-May-23 10:59N 35°23' E 139°40'0 0.0
2017-May-23 10:29N 35°23' E 139°40'0 0.0
2017-May-23 09:59N 35°23' E 139°40'0 0.0
2017-May-23 09:26N 35°23' E 139°40'0 0.0
2017-May-23 08:56N 35°23' E 139°40'0 0.0
2017-May-23 08:29N 35°23' E 139°40'0 0.0
2017-May-23 07:56N 35°23' E 139°40'0 0.0
2017-May-23 07:29N 35°23' E 139°40'0 0.0
2017-May-23 06:59N 35°23' E 139°40'0 0.0
2017-May-23 06:29N 35°23' E 139°40'5 9.7
2017-May-23 06:00N 35°19' E 139°44'612.2
2017-May-23 05:30N 35°13' E 139°47'612.7
2017-May-23 05:00N 35°07' E 139°45'612.2
2017-May-23 04:30N 35°01' E 139°44'  
Track history (hours):
 
Tides and Currents Weather Stations Pressure Air Temp Water Temp Dewpoint Dewpoint Depression Visibility Wind Speed Wind Dir Waves Ship Positions

Meishomaru

Last reported at 2017-Jun-01 06:43 UTC. Time now 2017-Jun-27 17:29 UTC.
Position N 34°14' E 134°58'.
Warning: this ship's position is 26 days out of date.

Length 68 m; draft 4 m.

Type: Tanker. MMSI: 431001216.

Date/timePositionNaut miles runAvg speedWind from/ knotsBaromVisibWave heightAir tempDewpointWater temp
2017-Jun-01 06:43N 34°14' E 134°58'1511.3
2017-Jun-01 05:21N 34°28' E 135°07'512.5
2017-Jun-01 04:58N 34°31' E 135°11'511.9
2017-Jun-01 04:31N 34°36' E 135°15'510.7
2017-Jun-01 04:00N 34°41' E 135°15'1 2.0
2017-Jun-01 03:30N 34°42' E 135°15'0 0.0
2017-Jun-01 02:46N 34°42' E 135°15'0 0.0
2017-Jun-01 01:28N 34°42' E 135°15'0 0.0
2017-Jun-01 00:40N 34°42' E 135°15'0 0.0
2017-Jun-01 00:28N 34°42' E 135°15'0 0.0
2017-May-31 23:52N 34°42' E 135°15'0 0.0
2017-May-31 23:22N 34°42' E 135°15'0 1.0
2017-May-31 23:00N 34°42' E 135°15'3 5.4
2017-May-31 22:30N 34°39' E 135°16'3 5.6
2017-May-31 22:00N 34°39' E 135°19'0 0.1
2017-May-31 21:28N 34°39' E 135°19'0 0.0
2017-May-31 20:52N 34°39' E 135°19'0 0.0
2017-May-31 20:22N 34°39' E 135°19'0 0.0
2017-May-31 19:58N 34°39' E 135°19'0 0.0
2017-May-31 19:22N 34°39' E 135°19'0 0.0
2017-May-31 18:58N 34°39' E 135°19'0 0.0
2017-May-31 18:28N 34°39' E 135°19'0 0.0
2017-May-31 17:58N 34°39' E 135°19'0 0.0
2017-May-31 17:28N 34°39' E 135°19'0 0.0
2017-May-31 16:52N 34°39' E 135°19'0 0.0
2017-May-31 16:22N 34°39' E 135°19'0 0.0
2017-May-31 15:58N 34°39' E 135°19'0 0.0
2017-May-31 15:28N 34°39' E 135°19'0 0.0
2017-May-31 14:58N 34°39' E 135°19'0 0.0
2017-May-31 13:52N 34°39' E 135°19'0 0.0
2017-May-31 13:28N 34°39' E 135°19'0 0.0
2017-May-31 12:58N 34°39' E 135°19'0 0.0
2017-May-31 11:58N 34°39' E 135°19'0 0.1
2017-May-31 11:28N 34°39' E 135°19'0 0.0
2017-May-31 10:58N 34°39' E 135°19'0 0.0
2017-May-31 10:28N 34°39' E 135°19'0 0.0
2017-May-31 09:40N 34°39' E 135°19'0 0.0
2017-May-31 09:28N 34°39' E 135°19'0 0.0
2017-May-31 08:58N 34°39' E 135°19'0 0.0
2017-May-31 08:10N 34°39' E 135°19'0 0.0
2017-May-31 07:58N 34°39' E 135°19'0 0.0
2017-May-31 07:28N 34°39' E 135°19'0 0.0
2017-May-31 06:16N 34°39' E 135°19'0 0.0
2017-May-31 05:58N 34°39' E 135°19'0 0.1
2017-May-31 05:04N 34°39' E 135°19'0 0.0
2017-May-31 04:52N 34°39' E 135°19'0 0.0
2017-May-31 04:10N 34°39' E 135°19'0 0.1
2017-May-31 03:58N 34°39' E 135°19'0 0.0
2017-May-31 03:28N 34°39' E 135°19'0 0.1
2017-May-31 02:58N 34°39' E 135°19'0 0.1
2017-May-31 02:16N 34°39' E 135°19'0 0.0
2017-May-31 01:52N 34°39' E 135°19'0 0.0
2017-May-31 01:28N 34°39' E 135°19'4 8.4
2017-May-31 01:00N 34°35' E 135°17'612.1
2017-May-31 00:30N 34°30' E 135°13'611.4
2017-May-31 00:00N 34°26' E 135°08'511.0
2017-May-30 23:30N 34°22' E 135°03'810.2
2017-May-30 22:44N 34°15' E 134°59'3 9.9
2017-May-30 22:28N 34°12' E 134°60'511.2
2017-May-30 21:59N 34°07' E 135°01'209 6.2
2017-May-29 12:20N 34°50' E 139°09'1511.1
2017-May-29 10:58N 34°60' E 139°24'911.3
2017-May-29 10:10N 35°04' E 139°33'211.9
2017-May-29 09:58N 35°05' E 139°36'612.4
2017-May-29 09:30N 35°08' E 139°42'611.3
2017-May-29 09:00N 35°12' E 139°46'510.0
2017-May-29 08:30N 35°17' E 139°45'510.6
2017-May-29 08:00N 35°22' E 139°42'510.0
2017-May-29 07:31N 35°26' E 139°45'510.9
2017-May-29 07:01N 35°29' E 139°51'510.6
2017-May-29 06:31N 35°32' E 139°57'610.9
2017-May-29 06:00N 35°34' E 140°03'2 0.5
2017-May-29 02:38N 35°33' E 140°05'0 1.7
2017-May-29 02:30N 35°33' E 140°05'3 0.2
2017-May-28 07:15N 35°33' E 140°01'312.2
2017-May-28 07:00N 35°32' E 139°58'612.3
2017-May-28 06:30N 35°28' E 139°52'612.5
2017-May-28 06:00N 35°24' E 139°46'612.1
2017-May-28 05:30N 35°18' E 139°45'611.7
2017-May-28 05:00N 35°12' E 139°47'611.6
2017-May-28 04:30N 35°07' E 139°45'1 2.8
2017-May-28 04:00N 35°06' E 139°44'4 9.0
2017-May-28 03:30N 35°10' E 139°45'612.6
2017-May-28 03:00N 35°17' E 139°45'612.3
2017-May-28 02:30N 35°22' E 139°42'612.2
2017-May-28 02:00N 35°28' E 139°42'4 7.7
2017-May-28 01:30N 35°31' E 139°45'0 0.0
2017-May-27 22:48N 35°31' E 139°45'0 0.9
2017-May-27 22:30N 35°31' E 139°45'3 6.4
2017-May-27 22:00N 35°30' E 139°49'1 1.3
2017-May-27 21:28N 35°30' E 139°49'0 0.0
2017-May-27 21:01N 35°30' E 139°49'0 0.0
2017-May-27 20:28N 35°30' E 139°49'0 0.0
2017-May-27 20:01N 35°30' E 139°49'0 0.0
2017-May-27 19:31N 35°30' E 139°49'0 0.0
2017-May-27 19:01N 35°30' E 139°49'0 0.0
2017-May-27 18:28N 35°30' E 139°49'0 0.0
2017-May-27 18:01N 35°30' E 139°49'0 0.0
2017-May-27 17:31N 35°30' E 139°49'0 0.0
2017-May-27 17:01N 35°30' E 139°49'0 0.0
2017-May-27 16:31N 35°30' E 139°49'0 0.0
2017-May-27 16:01N 35°30' E 139°49'0 0.0
2017-May-27 15:31N 35°30' E 139°49'0 0.0
2017-May-27 15:01N 35°30' E 139°49'0 0.0
2017-May-27 14:01N 35°30' E 139°49'0 0.0
2017-May-27 13:28N 35°30' E 139°49'0 0.0
2017-May-27 13:01N 35°30' E 139°49'0 0.0
2017-May-27 12:31N 35°30' E 139°49'0 0.0
2017-May-27 12:01N 35°30' E 139°49'0 0.0
2017-May-27 11:31N 35°30' E 139°49'0 0.1
2017-May-27 11:00N 35°30' E 139°49'4 8.7
2017-May-27 10:30N 35°27' E 139°45'510.5
2017-May-27 10:00N 35°24' E 139°40'1 2.5
2017-May-27 09:30N 35°25' E 139°39'0 0.0
2017-May-27 09:00N 35°25' E 139°39'0 0.0
2017-May-27 08:30N 35°25' E 139°39'0 0.0
2017-May-27 08:00N 35°25' E 139°39'0 0.0
2017-May-27 07:30N 35°25' E 139°39'0 0.0
2017-May-27 07:00N 35°25' E 139°39'0 0.0
2017-May-27 06:30N 35°25' E 139°39'0 0.0
2017-May-27 06:00N 35°25' E 139°39'0 0.0
2017-May-27 05:30N 35°25' E 139°39'0 0.3
2017-May-27 05:00N 35°25' E 139°39'2 4.1
2017-May-27 04:31N 35°23' E 139°40'0 0.1
2017-May-27 03:59N 35°23' E 139°40'0 0.0
2017-May-27 03:29N 35°23' E 139°40'0 0.0
2017-May-27 02:59N 35°23' E 139°40'2 3.4
2017-May-27 02:30N 35°24' E 139°42'510.5
2017-May-27 02:00N 35°29' E 139°42'3 6.0
2017-May-27 01:30N 35°31' E 139°45'0 0.0
2017-May-27 00:53N 35°31' E 139°45'0 0.0
2017-May-27 00:26N 35°31' E 139°45'0 0.0
2017-May-26 23:56N 35°31' E 139°45'0 0.0
2017-May-26 22:47N 35°31' E 139°45'0 0.3
2017-May-26 22:30N 35°31' E 139°45'3 5.6
2017-May-26 22:00N 35°30' E 139°48'1 1.7
2017-May-26 21:30N 35°29' E 139°48'0 0.0
2017-May-26 21:00N 35°29' E 139°48'0 0.0
2017-May-26 20:30N 35°29' E 139°48'0 0.0
2017-May-26 20:00N 35°29' E 139°48'0 0.0
2017-May-26 19:30N 35°29' E 139°48'0 0.0
2017-May-26 19:00N 35°29' E 139°48'0 0.0
2017-May-26 18:30N 35°29' E 139°48'0 0.0
2017-May-26 18:00N 35°29' E 139°48'0 0.0
2017-May-26 17:30N 35°29' E 139°48'0 0.0
2017-May-26 17:00N 35°29' E 139°48'0 0.0
2017-May-26 16:30N 35°29' E 139°48'0 0.1
2017-May-26 16:00N 35°29' E 139°49'0 0.0
2017-May-26 15:27N 35°29' E 139°49'0 0.0
2017-May-26 14:57N 35°29' E 139°49'0 0.0
2017-May-26 14:00N 35°29' E 139°49'0 0.0
2017-May-26 13:30N 35°29' E 139°49'0 0.0
2017-May-26 13:00N 35°29' E 139°49'0 0.0
2017-May-26 12:27N 35°29' E 139°49'0 0.0
2017-May-26 12:00N 35°29' E 139°49'1 1.7
2017-May-26 11:30N 35°28' E 139°48'611.2
2017-May-26 11:00N 35°25' E 139°43'3 6.6
2017-May-26 10:31N 35°25' E 139°39'0 0.0
2017-May-26 09:58N 35°25' E 139°39'0 0.0
2017-May-26 09:28N 35°25' E 139°39'0 0.0
2017-May-26 08:58N 35°25' E 139°39'0 0.0
2017-May-26 08:28N 35°25' E 139°39'0 0.0
2017-May-26 07:58N 35°25' E 139°39'0 0.0
2017-May-26 07:28N 35°25' E 139°39'0 0.0
2017-May-26 06:58N 35°25' E 139°39'0 0.0
2017-May-26 06:28N 35°25' E 139°39'1 1.5
2017-May-26 06:01N 35°24' E 139°39'612.0
2017-May-26 05:30N 35°19' E 139°44'612.3
2017-May-26 05:00N 35°14' E 139°47'612.4
2017-May-26 04:30N 35°08' E 139°46'612.2
2017-May-26 04:00N 35°02' E 139°44'4 0.1
2017-May-24 06:15N 34°57' E 139°44'310.9
2017-May-24 06:00N 34°60' E 139°43'611.7
2017-May-24 05:30N 35°05' E 139°44'611.3
2017-May-24 05:00N 35°11' E 139°46'510.4
2017-May-24 04:30N 35°16' E 139°46'510.7
2017-May-24 04:00N 35°21' E 139°42'5 9.6
2017-May-24 03:30N 35°25' E 139°39'0 0.1
2017-May-24 03:00N 35°25' E 139°39'0 0.0
2017-May-24 02:30N 35°25' E 139°39'0 0.0
2017-May-24 02:00N 35°25' E 139°39'0 0.0
2017-May-24 01:30N 35°25' E 139°39'0 0.0
2017-May-24 01:00N 35°25' E 139°39'0 0.0
2017-May-24 00:30N 35°25' E 139°39'0 0.0
2017-May-24 00:00N 35°25' E 139°39'0 0.0
2017-May-23 23:30N 35°25' E 139°39'1 1.1
2017-May-23 23:01N 35°24' E 139°39'2 3.2
2017-May-23 22:28N 35°23' E 139°40'0 0.0
2017-May-23 21:58N 35°23' E 139°40'0 0.0
2017-May-23 21:28N 35°23' E 139°40'0 0.1
2017-May-23 20:58N 35°23' E 139°40'0 0.1
2017-May-23 20:28N 35°23' E 139°40'0 0.0
2017-May-23 19:58N 35°23' E 139°40'0 0.0
2017-May-23 19:28N 35°23' E 139°40'0 0.0
2017-May-23 18:58N 35°23' E 139°40'0 0.0
2017-May-23 18:28N 35°23' E 139°40'0 0.0
2017-May-23 17:58N 35°23' E 139°40'0 0.0
2017-May-23 17:28N 35°23' E 139°40'0 0.0
2017-May-23 16:58N 35°23' E 139°40'0 0.0
2017-May-23 16:28N 35°23' E 139°40'0 0.0
2017-May-23 15:58N 35°23' E 139°40'0 0.0
2017-May-23 15:28N 35°23' E 139°40'0 0.0
2017-May-23 15:00N 35°23' E 139°40'0 0.0
2017-May-23 14:31N 35°23' E 139°40'0 0.0
2017-May-23 13:30N 35°23' E 139°40'0 0.0
2017-May-23 13:00N 35°23' E 139°40'0 0.0
2017-May-23 12:31N 35°23' E 139°40'0 0.0
2017-May-23 12:00N 35°23' E 139°40'0 0.0
2017-May-23 11:30N 35°23' E 139°40'0 0.0
2017-May-23 10:59N 35°23' E 139°40'0 0.0
2017-May-23 10:29N 35°23' E 139°40'0 0.0
2017-May-23 09:59N 35°23' E 139°40'0 0.0
2017-May-23 09:26N 35°23' E 139°40'0 0.0
2017-May-23 08:56N 35°23' E 139°40'0 0.0
2017-May-23 08:29N 35°23' E 139°40'0 0.0
2017-May-23 07:56N 35°23' E 139°40'0 0.0
2017-May-23 07:29N 35°23' E 139°40'0 0.0
2017-May-23 06:59N 35°23' E 139°40'0 0.0
2017-May-23 06:29N 35°23' E 139°40'5 9.7
2017-May-23 06:00N 35°19' E 139°44'612.2
2017-May-23 05:30N 35°13' E 139°47'612.7
2017-May-23 05:00N 35°07' E 139°45'612.2
2017-May-23 04:30N 35°01' E 139°44'  

Dump ship's entire track history